| time (UTC) | temp F | wind direction | speed knots | gust knots | rain 1hr in | rain 24hr in | rain mn in | humidity % | barometer mb |
| 20260508014649 | 31 | 198 | 0.0 | 0.0 | 0.00 | 0.00 | 0.00 | 82 | 1021.2 |
| 20260508013050 | 31 | 198 | 0.0 | 0.0 | 0.00 | 0.00 | 0.00 | 82 | 1021.1 |
| 20260508011650 | 31 | 198 | 0.0 | 0.0 | 0.00 | 0.00 | 0.00 | 80 | 1021.0 |
| 20260508010058 | 32 | 198 | 0.0 | 0.0 | 0.00 | 0.00 | 0.00 | 80 | 1020.9 |
| 20260508004649 | 32 | 198 | 0.0 | 0.0 | 0.00 | 0.00 | 0.00 | 79 | 1020.9 |
| 20260508003103 | 33 | 198 | 0.0 | 0.0 | 0.00 | 0.00 | 0.00 | 79 | 1020.8 |
| 20260508001649 | 33 | 198 | 0.0 | 0.0 | 0.00 | 0.00 | 0.00 | 80 | 1020.7 |
| 20260508000049 | 33 | 198 | 0.0 | 0.0 | 0.00 | 0.00 | 0.00 | 79 | 1020.6 |
| 20260507234650 | 33 | 198 | 0.0 | 0.0 | 0.00 | 0.00 | 0.00 | 79 | 1020.6 |
| 20260507233050 | 34 | 198 | 0.0 | 0.0 | 0.00 | 0.00 | 0.00 | 79 | 1020.5 |
| 20260507231649 | 34 | 198 | 0.0 | 0.0 | 0.00 | 0.00 | 0.00 | 78 | 1020.4 |
| 20260507230052 | 34 | 198 | 0.0 | 0.0 | 0.00 | 0.00 | 0.00 | 77 | 1020.3 |
| 20260507224650 | 35 | 198 | 0.0 | 0.0 | 0.00 | 0.00 | 0.00 | 76 | 1020.3 |
| 20260507223050 | 35 | 198 | 0.0 | 0.0 | 0.00 | 0.00 | 0.00 | 74 | 1020.2 |
| 20260507221650 | 36 | 198 | 0.0 | 0.0 | 0.00 | 0.00 | 0.00 | 73 | 1020.2 |
| 20260507220049 | 37 | 198 | 0.0 | 0.0 | 0.00 | 0.00 | 0.00 | 72 | 1020.0 |
| 20260507214650 | 38 | 198 | 0.0 | 0.0 | 0.00 | 0.00 | 0.00 | 70 | 1019.9 |
| 20260507213104 | 39 | 198 | 0.0 | 0.0 | 0.00 | 0.00 | 0.00 | 69 | 1019.7 |
| 20260507211651 | 39 | 198 | 0.0 | 0.0 | 0.00 | 0.00 | 0.00 | 67 | 1019.6 |
| 20260507210053 | 40 | 198 | 0.0 | 1.7 | 0.00 | 0.00 | 0.00 | 65 | 1019.5 |
| 20260507204651 | 41 | 111 | 0.0 | 0.0 | 0.00 | 0.00 | 0.00 | 58 | 1019.4 |
| 20260507203050 | 42 | 111 | 0.0 | 0.0 | 0.00 | 0.00 | 0.00 | 53 | 1019.3 |
| 20260507201652 | 43 | 111 | 0.0 | 0.0 | 0.00 | 0.00 | 0.00 | 50 | 1019.1 |
| 20260507200050 | 44 | 111 | 0.0 | 0.0 | 0.00 | 0.00 | 0.00 | 48 | 1018.9 |
| 20260507194650 | 46 | 111 | 0.0 | 0.0 | 0.00 | 0.00 | 0.00 | 44 | 1018.8 |
| 20260507193057 | 48 | 111 | 0.0 | 0.0 | 0.00 | 0.00 | 0.00 | 40 | 1018.6 |
| 20260507191651 | 51 | 111 | 0.0 | 0.0 | 0.00 | 0.00 | 0.00 | 35 | 1018.5 |
| 20260507190100 | 53 | 111 | 0.0 | 0.9 | 0.00 | 0.00 | 0.00 | 30 | 1018.2 |
| 20260507184650 | 53 | 111 | 0.0 | 1.7 | 0.00 | 0.00 | 0.00 | 27 | 1018.0 |
| 20260507183057 | 54 | 116 | 0.0 | 2.6 | 0.00 | 0.00 | 0.00 | 26 | 1017.8 |
| 20260507181651 | 54 | 96 | 0.9 | 2.6 | 0.00 | 0.00 | 0.00 | 24 | 1017.8 |
| 20260507180053 | 54 | 98 | 0.0 | 2.6 | 0.00 | 0.00 | 0.00 | 23 | 1017.7 |
| 20260507174651 | 55 | 95 | 0.9 | 2.6 | 0.00 | 0.00 | 0.00 | 23 | 1017.6 |
| 20260507173055 | 57 | 66 | 0.0 | 0.9 | 0.00 | 0.00 | 0.00 | 21 | 1017.5 |
| 20260507171650 | 58 | 306 | 0.9 | 3.5 | 0.00 | 0.00 | 0.00 | 20 | 1017.5 |
| 20260507170051 | 57 | 305 | 0.9 | 4.3 | 0.00 | 0.00 | 0.00 | 21 | 1017.3 |
| 20260507164654 | 57 | 304 | 0.9 | 2.6 | 0.00 | 0.00 | 0.00 | 21 | 1017.4 |
| 20260507163051 | 55 | 347 | 1.7 | 5.2 | 0.00 | 0.00 | 0.00 | 22 | 1017.3 |
| 20260507161649 | 56 | 346 | 0.0 | 3.5 | 0.00 | 0.00 | 0.00 | 22 | 1017.3 |
| 20260507160058 | 56 | 340 | 0.9 | 5.2 | 0.00 | 0.00 | 0.00 | 21 | 1017.3 |
| 20260507154650 | 56 | 322 | 0.9 | 6.1 | 0.00 | 0.00 | 0.00 | 21 | 1017.3 |
| 20260507153055 | 56 | 338 | 1.7 | 4.3 | 0.00 | 0.00 | 0.00 | 22 | 1017.2 |
| 20260507151654 | 56 | 338 | 1.7 | 5.2 | 0.00 | 0.00 | 0.00 | 22 | 1017.2 |
| 20260507150053 | 56 | 338 | 2.6 | 6.1 | 0.00 | 0.00 | 0.00 | 22 | 1017.1 |
| 20260507144650 | 56 | 275 | 1.7 | 5.2 | 0.00 | 0.00 | 0.00 | 25 | 1017.1 |
| 20260507143050 | 55 | 276 | 3.5 | 7.0 | 0.00 | 0.00 | 0.00 | 24 | 1017.0 |
| 20260507141651 | 56 | 296 | 2.6 | 7.8 | 0.00 | 0.00 | 0.00 | 25 | 1017.0 |
| 20260507134652 | 56 | 343 | 0.0 | 2.6 | 0.00 | 0.00 | 0.00 | 28 | 1017.0 |
| 20260507133051 | 55 | 317 | 1.7 | 3.5 | 0.00 | 0.00 | 0.00 | 28 | 1017.1 |
| 20260507131650 | 54 | 55 | 0.0 | 5.2 | 0.00 | 0.00 | 0.00 | 28 | 1017.1 |
| 20260507124650 | 53 | 96 | 0.9 | 4.3 | 0.00 | 0.00 | 0.00 | 28 | 1017.0 |
| 20260507123058 | 54 | 338 | 1.7 | 6.1 | 0.00 | 0.00 | 0.00 | 28 | 1017.2 |
| 20260507121652 | 53 | 86 | 0.9 | 3.5 | 0.00 | 0.00 | 0.00 | 31 | 1017.0 |
| 20260507120052 | 54 | 251 | 0.0 | 4.3 | 0.00 | 0.00 | 0.00 | 30 | 1016.9 |
| 20260507114654 | 53 | 214 | 0.9 | 5.2 | 0.00 | 0.00 | 0.00 | 31 | 1017.0 |
| 20260507113052 | 53 | 231 | 0.0 | 4.3 | 0.00 | 0.00 | 0.00 | 32 | 1017.1 |
| 20260507111653 | 51 | 292 | 1.7 | 6.1 | 0.00 | 0.00 | 0.00 | 34 | 1017.0 |
| 20260507110052 | 51 | 92 | 0.9 | 3.5 | 0.00 | 0.00 | 0.00 | 33 | 1017.2 |
| 20260507104651 | 51 | 126 | 0.9 | 4.3 | 0.00 | 0.00 | 0.00 | 35 | 1017.1 |
| 20260507103054 | 50 | 181 | 0.0 | 3.5 | 0.00 | 0.00 | 0.00 | 35 | 1017.0 |
| 20260507101653 | 50 | 345 | 1.7 | 6.1 | 0.00 | 0.00 | 0.00 | 37 | 1016.9 |
| 20260507100053 | 49 | 50 | 0.9 | 4.3 | 0.00 | 0.00 | 0.00 | 37 | 1017.0 |
| 20260507094651 | 49 | 157 | 0.9 | 4.3 | 0.00 | 0.00 | 0.00 | 38 | 1017.0 |
| 20260507093051 | 47 | 71 | 1.7 | 5.2 | 0.00 | 0.00 | 0.00 | 40 | 1017.0 |
| 20260507091652 | 47 | 129 | 0.9 | 5.2 | 0.00 | 0.00 | 0.00 | 39 | 1017.1 |
| 20260507090051 | 47 | 127 | 1.7 | 6.1 | 0.00 | 0.00 | 0.00 | 40 | 1017.0 |
| 20260507084654 | 47 | 116 | 0.9 | 4.3 | 0.00 | 0.00 | 0.00 | 41 | 1017.1 |
| 20260507083056 | 46 | 98 | 2.6 | 6.1 | 0.00 | 0.00 | 0.00 | 40 | 1017.0 |
| 20260507081651 | 46 | 63 | 0.0 | 5.2 | 0.00 | 0.00 | 0.00 | 42 | 1017.0 |
| 20260507080114 | 45 | 9 | 1.7 | 5.2 | 0.00 | 0.00 | 0.00 | 46 | 1016.8 |
| 20260507074653 | 45 | 46 | 2.6 | 6.1 | 0.00 | 0.00 | 0.00 | 46 | 1016.8 |
| 20260507073100 | 44 | 59 | 0.0 | 6.1 | 0.00 | 0.00 | 0.00 | 52 | 1016.7 |
| 20260507071652 | 43 | 78 | 0.9 | 4.3 | 0.00 | 0.00 | 0.00 | 56 | 1016.7 |
| 20260507070053 | 43 | 42 | 1.7 | 4.3 | 0.00 | 0.00 | 0.00 | 55 | 1016.6 |
| 20260507064653 | 42 | 71 | 0.9 | 5.2 | 0.00 | 0.00 | 0.00 | 59 | 1016.6 |
| 20260507063055 | 42 | 86 | 0.9 | 3.5 | 0.00 | 0.00 | 0.00 | 59 | 1016.6 |
| 20260507061651 | 41 | 75 | 0.0 | 4.3 | 0.00 | 0.00 | 0.00 | 57 | 1016.4 |
| 20260507060052 | 41 | 94 | 0.0 | 2.6 | 0.00 | 0.00 | 0.00 | 58 | 1016.3 |
| 20260507054652 | 41 | 42 | 0.0 | 2.6 | 0.00 | 0.00 | 0.00 | 58 | 1016.2 |
| 20260507053055 | 40 | 70 | 0.0 | 0.9 | 0.00 | 0.00 | 0.00 | 59 | 1016.1 |
| 20260507051652 | 40 | 61 | 0.0 | 0.9 | 0.00 | 0.00 | 0.00 | 58 | 1016.0 |
| 20260507050052 | 38 | 59 | 0.0 | 2.6 | 0.00 | 0.00 | 0.00 | 60 | 1016.0 |
| 20260507044653 | 37 | 355 | 1.7 | 3.5 | 0.00 | 0.00 | 0.00 | 59 | 1015.9 |
| 20260507043052 | 37 | 346 | 0.0 | 0.0 | 0.00 | 0.00 | 0.00 | 62 | 1015.8 |
| 20260507041652 | 36 | 346 | 0.0 | 0.0 | 0.00 | 0.00 | 0.00 | 65 | 1015.8 |
| 20260507034653 | 32 | 326 | 0.0 | 0.0 | 0.00 | 0.00 | 0.00 | 74 | 1015.5 |
| 20260507033056 | 31 | 326 | 0.0 | 1.7 | 0.00 | 0.00 | 0.00 | 77 | 1015.4 |
| 20260507031652 | 30 | 326 | 0.0 | 2.6 | 0.00 | 0.00 | 0.00 | 79 | 1015.3 |
| 20260507030056 | 30 | 317 | 0.0 | 0.0 | 0.00 | 0.00 | 0.00 | 76 | 1015.2 |
| 20260507024652 | 30 | 317 | 0.0 | 0.0 | 0.00 | 0.00 | 0.00 | 74 | 1015.1 |
| 20260507023053 | 32 | 317 | 0.0 | 0.0 | 0.00 | 0.00 | 0.00 | 72 | 1015.0 |
| 20260507021652 | 33 | 317 | 0.0 | 1.7 | 0.00 | 0.00 | 0.00 | 70 | 1014.9 |